sensor_id;sensor_type;location;lat;lon;timestamp;P1;durP1;ratioP1;P2;durP2;ratioP2
26102;SDS011;69760;49.380;8.998;2023-11-19T00:02:24;6.03;;;4.13;;
26102;SDS011;69760;49.380;8.998;2023-11-19T00:04:50;5.65;;;3.95;;
26102;SDS011;69760;49.380;8.998;2023-11-19T00:07:15;5.75;;;3.45;;
26102;SDS011;69760;49.380;8.998;2023-11-19T00:09:41;5.13;;;3.95;;
26102;SDS011;69760;49.380;8.998;2023-11-19T00:12:08;4.32;;;3.53;;
26102;SDS011;69760;49.380;8.998;2023-11-19T00:14:34;3.92;;;2.80;;
26102;SDS011;69760;49.380;8.998;2023-11-19T00:16:59;4.22;;;3.40;;
26102;SDS011;69760;49.380;8.998;2023-11-19T00:19:25;3.83;;;2.95;;
26102;SDS011;69760;49.380;8.998;2023-11-19T00:21:51;5.22;;;3.40;;
26102;SDS011;69760;49.380;8.998;2023-11-19T00:24:17;4.65;;;3.50;;
26102;SDS011;69760;49.380;8.998;2023-11-19T00:26:43;4.13;;;3.45;;
26102;SDS011;69760;49.380;8.998;2023-11-19T00:29:09;5.13;;;3.25;;
26102;SDS011;69760;49.380;8.998;2023-11-19T00:31:35;5.30;;;3.30;;
26102;SDS011;69760;49.380;8.998;2023-11-19T00:34:01;4.47;;;3.33;;
26102;SDS011;69760;49.380;8.998;2023-11-19T00:36:27;4.65;;;3.25;;
26102;SDS011;69760;49.380;8.998;2023-11-19T00:38:53;4.38;;;3.35;;
26102;SDS011;69760;49.380;8.998;2023-11-19T00:41:19;4.68;;;3.35;;
26102;SDS011;69760;49.380;8.998;2023-11-19T00:43:45;4.25;;;3.17;;
26102;SDS011;69760;49.380;8.998;2023-11-19T00:46:10;6.03;;;4.18;;
26102;SDS011;69760;49.380;8.998;2023-11-19T00:48:36;4.50;;;3.53;;
26102;SDS011;69760;49.380;8.998;2023-11-19T00:51:03;4.10;;;3.55;;
26102;SDS011;69760;49.380;8.998;2023-11-19T00:53:29;4.15;;;3.10;;
26102;SDS011;69760;49.380;8.998;2023-11-19T00:55:55;3.90;;;3.30;;
26102;SDS011;69760;49.380;8.998;2023-11-19T00:58:22;4.78;;;3.78;;
26102;SDS011;69760;49.380;8.998;2023-11-19T01:00:47;5.03;;;3.70;;
26102;SDS011;69760;49.380;8.998;2023-11-19T01:03:13;4.38;;;3.38;;
26102;SDS011;69760;49.380;8.998;2023-11-19T01:05:40;4.22;;;3.53;;
26102;SDS011;69760;49.380;8.998;2023-11-19T01:08:06;4.03;;;3.60;;
26102;SDS011;69760;49.380;8.998;2023-11-19T01:10:32;3.72;;;3.40;;
26102;SDS011;69760;49.380;8.998;2023-11-19T01:12:57;5.20;;;3.60;;
26102;SDS011;69760;49.380;8.998;2023-11-19T01:15:23;4.25;;;3.63;;
26102;SDS011;69760;49.380;8.998;2023-11-19T01:17:49;3.58;;;3.25;;
26102;SDS011;69760;49.380;8.998;2023-11-19T01:20:14;5.63;;;4.50;;
26102;SDS011;69760;49.380;8.998;2023-11-19T01:22:40;5.47;;;4.50;;
26102;SDS011;69760;49.380;8.998;2023-11-19T01:25:06;5.00;;;3.80;;
26102;SDS011;69760;49.380;8.998;2023-11-19T01:27:32;4.55;;;3.38;;
26102;SDS011;69760;49.380;8.998;2023-11-19T01:29:59;4.72;;;3.42;;
26102;SDS011;69760;49.380;8.998;2023-11-19T01:32:28;4.03;;;3.08;;
26102;SDS011;69760;49.380;8.998;2023-11-19T01:34:54;4.07;;;3.10;;
26102;SDS011;69760;49.380;8.998;2023-11-19T01:37:19;3.78;;;2.67;;
26102;SDS011;69760;49.380;8.998;2023-11-19T01:39:45;3.15;;;2.78;;
26102;SDS011;69760;49.380;8.998;2023-11-19T01:42:11;3.75;;;2.90;;
26102;SDS011;69760;49.380;8.998;2023-11-19T01:44:40;4.00;;;2.97;;
26102;SDS011;69760;49.380;8.998;2023-11-19T01:47:06;4.07;;;3.47;;
26102;SDS011;69760;49.380;8.998;2023-11-19T01:49:32;4.57;;;3.70;;
26102;SDS011;69760;49.380;8.998;2023-11-19T01:51:58;4.65;;;4.10;;
26102;SDS011;69760;49.380;8.998;2023-11-19T01:54:24;3.70;;;3.30;;
26102;SDS011;69760;49.380;8.998;2023-11-19T01:56:50;4.38;;;3.33;;
26102;SDS011;69760;49.380;8.998;2023-11-19T01:59:18;4.68;;;3.65;;
26102;SDS011;69760;49.380;8.998;2023-11-19T02:01:51;5.10;;;3.80;;
26102;SDS011;69760;49.380;8.998;2023-11-19T02:04:17;4.70;;;3.38;;
26102;SDS011;69760;49.380;8.998;2023-11-19T02:06:43;4.00;;;3.08;;
26102;SDS011;69760;49.380;8.998;2023-11-19T02:09:10;4.13;;;2.90;;
26102;SDS011;69760;49.380;8.998;2023-11-19T02:11:35;3.50;;;3.10;;
26102;SDS011;69760;49.380;8.998;2023-11-19T02:14:01;5.07;;;3.58;;
26102;SDS011;69760;49.380;8.998;2023-11-19T02:16:29;4.95;;;3.42;;
26102;SDS011;69760;49.380;8.998;2023-11-19T02:18:54;5.75;;;4.25;;
26102;SDS011;69760;49.380;8.998;2023-11-19T02:21:20;4.00;;;3.60;;
26102;SDS011;69760;49.380;8.998;2023-11-19T02:23:46;5.32;;;4.05;;
26102;SDS011;69760;49.380;8.998;2023-11-19T02:26:16;4.72;;;3.45;;
26102;SDS011;69760;49.380;8.998;2023-11-19T02:29:03;3.97;;;3.53;;
26102;SDS011;69760;49.380;8.998;2023-11-19T02:31:29;4.40;;;3.28;;
26102;SDS011;69760;49.380;8.998;2023-11-19T02:33:54;4.78;;;3.78;;
26102;SDS011;69760;49.380;8.998;2023-11-19T02:36:20;4.85;;;3.30;;
26102;SDS011;69760;49.380;8.998;2023-11-19T02:38:46;4.15;;;3.15;;
26102;SDS011;69760;49.380;8.998;2023-11-19T02:41:13;4.38;;;3.50;;
26102;SDS011;69760;49.380;8.998;2023-11-19T02:43:39;4.75;;;3.70;;
26102;SDS011;69760;49.380;8.998;2023-11-19T02:46:05;4.55;;;3.42;;
26102;SDS011;69760;49.380;8.998;2023-11-19T02:48:34;6.22;;;3.83;;
26102;SDS011;69760;49.380;8.998;2023-11-19T02:51:03;4.70;;;3.80;;
26102;SDS011;69760;49.380;8.998;2023-11-19T02:53:29;3.97;;;3.22;;
26102;SDS011;69760;49.380;8.998;2023-11-19T02:55:55;4.78;;;3.90;;
26102;SDS011;69760;49.380;8.998;2023-11-19T02:58:27;4.63;;;3.80;;
26102;SDS011;69760;49.380;8.998;2023-11-19T03:00:53;9.52;;;5.88;;
26102;SDS011;69760;49.380;8.998;2023-11-19T03:03:26;5.55;;;4.38;;
26102;SDS011;69760;49.380;8.998;2023-11-19T03:06:03;16.02;;;8.27;;
26102;SDS011;69760;49.380;8.998;2023-11-19T03:08:30;19.20;;;9.52;;
26102;SDS011;69760;49.380;8.998;2023-11-19T03:10:55;26.65;;;12.63;;
26102;SDS011;69760;49.380;8.998;2023-11-19T03:13:21;19.80;;;9.68;;
26102;SDS011;69760;49.380;8.998;2023-11-19T03:15:47;16.05;;;8.25;;
26102;SDS011;69760;49.380;8.998;2023-11-19T03:18:12;7.20;;;5.05;;
26102;SDS011;69760;49.380;8.998;2023-11-19T03:20:38;6.25;;;4.40;;
26102;SDS011;69760;49.380;8.998;2023-11-19T03:23:04;6.53;;;4.90;;
26102;SDS011;69760;49.380;8.998;2023-11-19T03:25:31;5.45;;;4.28;;
26102;SDS011;69760;49.380;8.998;2023-11-19T03:27:59;9.63;;;6.88;;
26102;SDS011;69760;49.380;8.998;2023-11-19T03:30:29;8.18;;;5.07;;
26102;SDS011;69760;49.380;8.998;2023-11-19T03:32:55;22.40;;;11.80;;
26102;SDS011;69760;49.380;8.998;2023-11-19T03:35:22;21.45;;;11.88;;
26102;SDS011;69760;49.380;8.998;2023-11-19T03:37:48;20.13;;;12.18;;
26102;SDS011;69760;49.380;8.998;2023-11-19T03:40:14;13.00;;;9.63;;
26102;SDS011;69760;49.380;8.998;2023-11-19T03:42:40;20.95;;;13.05;;
26102;SDS011;69760;49.380;8.998;2023-11-19T03:45:08;63.85;;;37.40;;
26102;SDS011;69760;49.380;8.998;2023-11-19T03:47:34;21.70;;;15.05;;
26102;SDS011;69760;49.380;8.998;2023-11-19T03:50:00;10.27;;;7.50;;
26102;SDS011;69760;49.380;8.998;2023-11-19T03:52:27;15.45;;;11.65;;
26102;SDS011;69760;49.380;8.998;2023-11-19T03:54:53;5.32;;;4.60;;
26102;SDS011;69760;49.380;8.998;2023-11-19T03:57:20;11.13;;;8.70;;
26102;SDS011;69760;49.380;8.998;2023-11-19T03:59:46;8.65;;;7.00;;
26102;SDS011;69760;49.380;8.998;2023-11-19T04:02:11;6.00;;;5.43;;
26102;SDS011;69760;49.380;8.998;2023-11-19T04:04:37;3.78;;;3.38;;
26102;SDS011;69760;49.380;8.998;2023-11-19T04:07:04;4.00;;;3.60;;
26102;SDS011;69760;49.380;8.998;2023-11-19T04:09:30;4.60;;;2.20;;
26102;SDS011;69760;49.380;8.998;2023-11-19T04:11:56;3.13;;;2.03;;
26102;SDS011;69760;49.380;8.998;2023-11-19T04:14:22;2.50;;;1.58;;
26102;SDS011;69760;49.380;8.998;2023-11-19T04:16:47;2.47;;;2.15;;
26102;SDS011;69760;49.380;8.998;2023-11-19T04:19:13;1.50;;;1.40;;
26102;SDS011;69760;49.380;8.998;2023-11-19T04:21:41;3.17;;;1.77;;
26102;SDS011;69760;49.380;8.998;2023-11-19T04:24:08;2.28;;;1.70;;
26102;SDS011;69760;49.380;8.998;2023-11-19T04:26:34;1.58;;;1.45;;
26102;SDS011;69760;49.380;8.998;2023-11-19T04:28:59;1.70;;;1.40;;
26102;SDS011;69760;49.380;8.998;2023-11-19T04:31:28;1.85;;;1.30;;
26102;SDS011;69760;49.380;8.998;2023-11-19T04:33:56;1.80;;;1.38;;
26102;SDS011;69760;49.380;8.998;2023-11-19T04:36:22;1.40;;;1.30;;
26102;SDS011;69760;49.380;8.998;2023-11-19T04:38:49;1.55;;;1.45;;
26102;SDS011;69760;49.380;8.998;2023-11-19T04:41:15;2.15;;;1.27;;
26102;SDS011;69760;49.380;8.998;2023-11-19T04:43:41;2.17;;;1.40;;
26102;SDS011;69760;49.380;8.998;2023-11-19T04:46:06;1.50;;;1.40;;
26102;SDS011;69760;49.380;8.998;2023-11-19T04:48:34;1.95;;;1.30;;
26102;SDS011;69760;49.380;8.998;2023-11-19T04:50:59;1.40;;;1.25;;
26102;SDS011;69760;49.380;8.998;2023-11-19T04:53:25;1.73;;;1.40;;
26102;SDS011;69760;49.380;8.998;2023-11-19T04:55:50;1.52;;;1.38;;
26102;SDS011;69760;49.380;8.998;2023-11-19T04:58:16;2.65;;;1.33;;
26102;SDS011;69760;49.380;8.998;2023-11-19T05:00:42;1.58;;;1.40;;
26102;SDS011;69760;49.380;8.998;2023-11-19T05:03:07;1.60;;;1.45;;
26102;SDS011;69760;49.380;8.998;2023-11-19T05:05:33;3.22;;;1.50;;
26102;SDS011;69760;49.380;8.998;2023-11-19T05:07:58;2.72;;;1.48;;
26102;SDS011;69760;49.380;8.998;2023-11-19T05:10:24;2.95;;;1.60;;
26102;SDS011;69760;49.380;8.998;2023-11-19T05:12:50;2.33;;;1.40;;
26102;SDS011;69760;49.380;8.998;2023-11-19T05:15:16;1.98;;;1.40;;
26102;SDS011;69760;49.380;8.998;2023-11-19T05:17:42;2.13;;;1.58;;
26102;SDS011;69760;49.380;8.998;2023-11-19T05:20:08;2.33;;;1.50;;
26102;SDS011;69760;49.380;8.998;2023-11-19T05:22:41;1.77;;;1.65;;
26102;SDS011;69760;49.380;8.998;2023-11-19T05:25:08;2.83;;;1.60;;
26102;SDS011;69760;49.380;8.998;2023-11-19T05:27:34;1.73;;;1.50;;
26102;SDS011;69760;49.380;8.998;2023-11-19T05:30:01;1.92;;;1.73;;
26102;SDS011;69760;49.380;8.998;2023-11-19T05:32:27;4.15;;;2.08;;
26102;SDS011;69760;49.380;8.998;2023-11-19T05:34:53;2.75;;;1.80;;
26102;SDS011;69760;49.380;8.998;2023-11-19T05:37:19;3.60;;;2.00;;
26102;SDS011;69760;49.380;8.998;2023-11-19T05:39:45;3.55;;;1.92;;
26102;SDS011;69760;49.380;8.998;2023-11-19T05:42:10;2.28;;;1.80;;
26102;SDS011;69760;49.380;8.998;2023-11-19T05:44:36;3.95;;;1.92;;
26102;SDS011;69760;49.380;8.998;2023-11-19T05:47:02;2.45;;;2.00;;
26102;SDS011;69760;49.380;8.998;2023-11-19T05:49:28;2.20;;;1.83;;
26102;SDS011;69760;49.380;8.998;2023-11-19T05:51:54;3.58;;;2.08;;
26102;SDS011;69760;49.380;8.998;2023-11-19T05:54:21;2.45;;;1.67;;
26102;SDS011;69760;49.380;8.998;2023-11-19T05:56:49;1.70;;;1.60;;
26102;SDS011;69760;49.380;8.998;2023-11-19T05:59:15;3.28;;;1.60;;
26102;SDS011;69760;49.380;8.998;2023-11-19T06:01:43;3.33;;;2.03;;
26102;SDS011;69760;49.380;8.998;2023-11-19T06:04:09;1.95;;;1.67;;
26102;SDS011;69760;49.380;8.998;2023-11-19T06:06:35;2.60;;;1.60;;
26102;SDS011;69760;49.380;8.998;2023-11-19T06:09:01;3.75;;;1.85;;
26102;SDS011;69760;49.380;8.998;2023-11-19T06:11:27;3.78;;;1.88;;
26102;SDS011;69760;49.380;8.998;2023-11-19T06:13:53;5.05;;;2.13;;
26102;SDS011;69760;49.380;8.998;2023-11-19T06:16:18;2.63;;;2.00;;
26102;SDS011;69760;49.380;8.998;2023-11-19T06:18:44;2.38;;;2.03;;
26102;SDS011;69760;49.380;8.998;2023-11-19T06:21:10;4.43;;;2.10;;
26102;SDS011;69760;49.380;8.998;2023-11-19T06:23:37;2.90;;;1.98;;
26102;SDS011;69760;49.380;8.998;2023-11-19T06:26:02;2.42;;;1.98;;
26102;SDS011;69760;49.380;8.998;2023-11-19T06:28:28;4.28;;;2.05;;
26102;SDS011;69760;49.380;8.998;2023-11-19T06:30:54;4.07;;;1.85;;
26102;SDS011;69760;49.380;8.998;2023-11-19T06:33:19;3.53;;;2.03;;
26102;SDS011;69760;49.380;8.998;2023-11-19T06:35:45;3.22;;;2.08;;
26102;SDS011;69760;49.380;8.998;2023-11-19T06:38:10;3.25;;;1.67;;
26102;SDS011;69760;49.380;8.998;2023-11-19T06:40:36;4.18;;;1.60;;
26102;SDS011;69760;49.380;8.998;2023-11-19T06:43:02;3.42;;;1.80;;
26102;SDS011;69760;49.380;8.998;2023-11-19T06:45:33;3.00;;;1.92;;
26102;SDS011;69760;49.380;8.998;2023-11-19T06:48:02;2.33;;;1.48;;
26102;SDS011;69760;49.380;8.998;2023-11-19T06:50:29;2.40;;;1.63;;
26102;SDS011;69760;49.380;8.998;2023-11-19T06:52:54;2.10;;;1.38;;
26102;SDS011;69760;49.380;8.998;2023-11-19T06:55:20;1.42;;;1.33;;
26102;SDS011;69760;49.380;8.998;2023-11-19T06:57:45;2.08;;;1.30;;
26102;SDS011;69760;49.380;8.998;2023-11-19T07:00:11;1.30;;;1.10;;
26102;SDS011;69760;49.380;8.998;2023-11-19T07:02:37;1.20;;;1.00;;
26102;SDS011;69760;49.380;8.998;2023-11-19T07:05:03;1.15;;;1.00;;
26102;SDS011;69760;49.380;8.998;2023-11-19T07:07:33;1.60;;;1.02;;
26102;SDS011;69760;49.380;8.998;2023-11-19T07:09:58;1.73;;;0.90;;
26102;SDS011;69760;49.380;8.998;2023-11-19T07:12:24;2.20;;;0.98;;
26102;SDS011;69760;49.380;8.998;2023-11-19T07:14:51;1.48;;;0.80;;
26102;SDS011;69760;49.380;8.998;2023-11-19T07:17:18;3.10;;;0.90;;
26102;SDS011;69760;49.380;8.998;2023-11-19T07:19:45;1.50;;;0.95;;
26102;SDS011;69760;49.380;8.998;2023-11-19T07:22:11;1.80;;;0.88;;
26102;SDS011;69760;49.380;8.998;2023-11-19T07:24:38;1.00;;;0.90;;
26102;SDS011;69760;49.380;8.998;2023-11-19T07:27:05;1.25;;;0.80;;
26102;SDS011;69760;49.380;8.998;2023-11-19T07:29:31;1.08;;;0.70;;
26102;SDS011;69760;49.380;8.998;2023-11-19T07:31:57;1.85;;;0.70;;
26102;SDS011;69760;49.380;8.998;2023-11-19T07:34:22;2.15;;;0.70;;
26102;SDS011;69760;49.380;8.998;2023-11-19T07:36:49;1.40;;;0.70;;
26102;SDS011;69760;49.380;8.998;2023-11-19T07:39:15;2.92;;;0.85;;
26102;SDS011;69760;49.380;8.998;2023-11-19T07:41:40;1.23;;;0.85;;
26102;SDS011;69760;49.380;8.998;2023-11-19T07:44:06;1.15;;;0.60;;
26102;SDS011;69760;49.380;8.998;2023-11-19T07:46:32;0.95;;;0.77;;
26102;SDS011;69760;49.380;8.998;2023-11-19T07:48:58;2.47;;;0.80;;
26102;SDS011;69760;49.380;8.998;2023-11-19T07:51:23;1.75;;;0.80;;
26102;SDS011;69760;49.380;8.998;2023-11-19T07:53:49;1.05;;;0.90;;
26102;SDS011;69760;49.380;8.998;2023-11-19T07:56:14;1.77;;;1.00;;
26102;SDS011;69760;49.380;8.998;2023-11-19T07:58:40;1.25;;;1.05;;
26102;SDS011;69760;49.380;8.998;2023-11-19T08:01:06;2.55;;;0.85;;
26102;SDS011;69760;49.380;8.998;2023-11-19T08:03:32;1.13;;;0.75;;
26102;SDS011;69760;49.380;8.998;2023-11-19T08:05:59;1.25;;;0.80;;
26102;SDS011;69760;49.380;8.998;2023-11-19T08:08:25;1.20;;;0.57;;
26102;SDS011;69760;49.380;8.998;2023-11-19T08:10:50;1.35;;;0.73;;
26102;SDS011;69760;49.380;8.998;2023-11-19T08:13:17;1.50;;;0.70;;
26102;SDS011;69760;49.380;8.998;2023-11-19T08:15:43;1.40;;;0.88;;
26102;SDS011;69760;49.380;8.998;2023-11-19T08:18:09;1.02;;;0.60;;
26102;SDS011;69760;49.380;8.998;2023-11-19T08:20:35;0.80;;;0.50;;
26102;SDS011;69760;49.380;8.998;2023-11-19T08:23:02;0.40;;;0.40;;
26102;SDS011;69760;49.380;8.998;2023-11-19T08:25:28;0.35;;;0.30;;
26102;SDS011;69760;49.380;8.998;2023-11-19T08:27:54;2.45;;;0.50;;
26102;SDS011;69760;49.380;8.998;2023-11-19T08:30:19;0.60;;;0.52;;
26102;SDS011;69760;49.380;8.998;2023-11-19T08:32:45;0.80;;;0.80;;
26102;SDS011;69760;49.380;8.998;2023-11-19T08:35:10;0.93;;;0.80;;
26102;SDS011;69760;49.380;8.998;2023-11-19T08:37:36;1.50;;;0.80;;
26102;SDS011;69760;49.380;8.998;2023-11-19T08:40:02;1.58;;;1.00;;
26102;SDS011;69760;49.380;8.998;2023-11-19T08:42:29;1.10;;;0.95;;
26102;SDS011;69760;49.380;8.998;2023-11-19T08:44:55;1.40;;;1.23;;
26102;SDS011;69760;49.380;8.998;2023-11-19T08:47:21;1.85;;;0.90;;
26102;SDS011;69760;49.380;8.998;2023-11-19T08:49:47;2.05;;;0.90;;
26102;SDS011;69760;49.380;8.998;2023-11-19T08:52:16;1.10;;;0.70;;
26102;SDS011;69760;49.380;8.998;2023-11-19T08:54:42;1.90;;;0.80;;
26102;SDS011;69760;49.380;8.998;2023-11-19T08:57:08;2.55;;;0.85;;
26102;SDS011;69760;49.380;8.998;2023-11-19T08:59:34;1.20;;;0.77;;
26102;SDS011;69760;49.380;8.998;2023-11-19T09:02:00;2.15;;;0.93;;
26102;SDS011;69760;49.380;8.998;2023-11-19T09:04:26;1.45;;;0.90;;
26102;SDS011;69760;49.380;8.998;2023-11-19T09:06:52;2.03;;;0.90;;
26102;SDS011;69760;49.380;8.998;2023-11-19T09:09:18;2.80;;;0.80;;
26102;SDS011;69760;49.380;8.998;2023-11-19T09:11:44;2.55;;;1.10;;
26102;SDS011;69760;49.380;8.998;2023-11-19T09:14:09;4.20;;;1.17;;
26102;SDS011;69760;49.380;8.998;2023-11-19T09:16:35;1.85;;;1.08;;
26102;SDS011;69760;49.380;8.998;2023-11-19T09:19:00;4.15;;;0.95;;
26102;SDS011;69760;49.380;8.998;2023-11-19T09:21:27;3.33;;;1.08;;
26102;SDS011;69760;49.380;8.998;2023-11-19T09:23:54;2.55;;;0.80;;
26102;SDS011;69760;49.380;8.998;2023-11-19T09:26:20;2.58;;;1.05;;
26102;SDS011;69760;49.380;8.998;2023-11-19T09:28:46;2.20;;;0.90;;
26102;SDS011;69760;49.380;8.998;2023-11-19T09:31:17;2.22;;;0.95;;
26102;SDS011;69760;49.380;8.998;2023-11-19T09:33:44;3.33;;;1.08;;
26102;SDS011;69760;49.380;8.998;2023-11-19T09:36:13;1.77;;;0.90;;
26102;SDS011;69760;49.380;8.998;2023-11-19T09:38:40;1.38;;;0.90;;
26102;SDS011;69760;49.380;8.998;2023-11-19T09:41:05;2.53;;;0.80;;
26102;SDS011;69760;49.380;8.998;2023-11-19T09:43:35;1.65;;;1.00;;
26102;SDS011;69760;49.380;8.998;2023-11-19T09:46:04;1.38;;;0.90;;
26102;SDS011;69760;49.380;8.998;2023-11-19T09:48:35;2.17;;;0.88;;
26102;SDS011;69760;49.380;8.998;2023-11-19T09:51:05;2.90;;;1.23;;
26102;SDS011;69760;49.380;8.998;2023-11-19T09:53:32;4.72;;;1.00;;
26102;SDS011;69760;49.380;8.998;2023-11-19T09:56:05;1.98;;;0.98;;
26102;SDS011;69760;49.380;8.998;2023-11-19T09:58:32;1.88;;;0.90;;
26102;SDS011;69760;49.380;8.998;2023-11-19T10:00:59;1.48;;;0.98;;
26102;SDS011;69760;49.380;8.998;2023-11-19T10:03:26;2.53;;;0.98;;
26102;SDS011;69760;49.380;8.998;2023-11-19T10:05:55;1.52;;;0.90;;
26102;SDS011;69760;49.380;8.998;2023-11-19T10:08:21;2.50;;;0.90;;
26102;SDS011;69760;49.380;8.998;2023-11-19T10:10:47;3.17;;;1.00;;
26102;SDS011;69760;49.380;8.998;2023-11-19T10:13:13;1.50;;;0.70;;
26102;SDS011;69760;49.380;8.998;2023-11-19T10:15:39;1.80;;;0.85;;
26102;SDS011;69760;49.380;8.998;2023-11-19T10:18:06;3.70;;;1.15;;
26102;SDS011;69760;49.380;8.998;2023-11-19T10:20:40;2.85;;;1.05;;
26102;SDS011;69760;49.380;8.998;2023-11-19T10:23:06;2.00;;;1.00;;
26102;SDS011;69760;49.380;8.998;2023-11-19T10:25:32;3.00;;;1.08;;
26102;SDS011;69760;49.380;8.998;2023-11-19T10:27:58;2.50;;;0.90;;
26102;SDS011;69760;49.380;8.998;2023-11-19T10:30:26;5.85;;;0.90;;
26102;SDS011;69760;49.380;8.998;2023-11-19T10:35:35;1.13;;;0.75;;
26102;SDS011;69760;49.380;8.998;2023-11-19T10:38:15;2.78;;;0.98;;
26102;SDS011;69760;49.380;8.998;2023-11-19T10:40:41;1.65;;;0.88;;
26102;SDS011;69760;49.380;8.998;2023-11-19T10:43:07;1.55;;;0.80;;
26102;SDS011;69760;49.380;8.998;2023-11-19T10:45:33;3.95;;;1.55;;
26102;SDS011;69760;49.380;8.998;2023-11-19T10:47:59;2.42;;;1.00;;
26102;SDS011;69760;49.380;8.998;2023-11-19T10:50:26;2.58;;;1.30;;
26102;SDS011;69760;49.380;8.998;2023-11-19T10:52:55;2.75;;;1.20;;
26102;SDS011;69760;49.380;8.998;2023-11-19T10:55:28;5.57;;;0.90;;
26102;SDS011;69760;49.380;8.998;2023-11-19T10:58:01;2.63;;;0.98;;
26102;SDS011;69760;49.380;8.998;2023-11-19T11:00:29;4.00;;;1.08;;
26102;SDS011;69760;49.380;8.998;2023-11-19T11:03:01;2.20;;;0.90;;
26102;SDS011;69760;49.380;8.998;2023-11-19T11:05:32;3.05;;;0.88;;
26102;SDS011;69760;49.380;8.998;2023-11-19T11:08:00;3.92;;;0.93;;
26102;SDS011;69760;49.380;8.998;2023-11-19T11:10:26;2.13;;;0.80;;
26102;SDS011;69760;49.380;8.998;2023-11-19T11:12:55;1.80;;;1.00;;
26102;SDS011;69760;49.380;8.998;2023-11-19T11:15:26;2.65;;;0.85;;
26102;SDS011;69760;49.380;8.998;2023-11-19T11:17:57;2.20;;;0.80;;
26102;SDS011;69760;49.380;8.998;2023-11-19T11:20:28;2.35;;;0.70;;
26102;SDS011;69760;49.380;8.998;2023-11-19T11:23:11;3.63;;;1.20;;
26102;SDS011;69760;49.380;8.998;2023-11-19T11:31:26;5.38;;;1.15;;
26102;SDS011;69760;49.380;8.998;2023-11-19T11:37:11;1.90;;;0.80;;
26102;SDS011;69760;49.380;8.998;2023-11-19T11:39:49;2.97;;;1.15;;
26102;SDS011;69760;49.380;8.998;2023-11-19T11:45:02;1.85;;;1.05;;
26102;SDS011;69760;49.380;8.998;2023-11-19T11:50:19;1.60;;;0.60;;
26102;SDS011;69760;49.380;8.998;2023-11-19T11:55:26;3.55;;;0.98;;
26102;SDS011;69760;49.380;8.998;2023-11-19T11:57:55;1.42;;;0.95;;
26102;SDS011;69760;49.380;8.998;2023-11-19T12:00:30;3.72;;;0.90;;
26102;SDS011;69760;49.380;8.998;2023-11-19T12:03:06;4.45;;;0.75;;
26102;SDS011;69760;49.380;8.998;2023-11-19T12:05:33;1.52;;;0.80;;
26102;SDS011;69760;49.380;8.998;2023-11-19T12:08:04;3.58;;;0.90;;
26102;SDS011;69760;49.380;8.998;2023-11-19T12:10:33;3.35;;;0.80;;
26102;SDS011;69760;49.380;8.998;2023-11-19T12:13:04;3.17;;;0.98;;
26102;SDS011;69760;49.380;8.998;2023-11-19T12:15:32;2.03;;;0.85;;
26102;SDS011;69760;49.380;8.998;2023-11-19T12:17:58;1.23;;;0.70;;
26102;SDS011;69760;49.380;8.998;2023-11-19T12:20:24;3.67;;;0.80;;
26102;SDS011;69760;49.380;8.998;2023-11-19T12:22:51;2.03;;;0.80;;
26102;SDS011;69760;49.380;8.998;2023-11-19T12:25:18;3.35;;;0.85;;
26102;SDS011;69760;49.380;8.998;2023-11-19T12:27:45;3.65;;;0.80;;
26102;SDS011;69760;49.380;8.998;2023-11-19T12:30:12;1.70;;;0.95;;
26102;SDS011;69760;49.380;8.998;2023-11-19T12:32:51;2.03;;;0.80;;
26102;SDS011;69760;49.380;8.998;2023-11-19T12:35:20;4.20;;;0.90;;
26102;SDS011;69760;49.380;8.998;2023-11-19T12:37:46;5.50;;;0.98;;
26102;SDS011;69760;49.380;8.998;2023-11-19T12:40:17;3.80;;;1.00;;
26102;SDS011;69760;49.380;8.998;2023-11-19T12:42:43;2.72;;;0.90;;
26102;SDS011;69760;49.380;8.998;2023-11-19T12:45:09;2.17;;;0.80;;
26102;SDS011;69760;49.380;8.998;2023-11-19T12:47:44;2.22;;;1.02;;
26102;SDS011;69760;49.380;8.998;2023-11-19T12:50:12;2.25;;;0.85;;
26102;SDS011;69760;49.380;8.998;2023-11-19T12:52:38;2.83;;;0.80;;
26102;SDS011;69760;49.380;8.998;2023-11-19T13:05:39;2.40;;;1.00;;
26102;SDS011;69760;49.380;8.998;2023-11-19T13:08:05;2.55;;;1.05;;
26102;SDS011;69760;49.380;8.998;2023-11-19T13:10:33;3.53;;;1.40;;
26102;SDS011;69760;49.380;8.998;2023-11-19T13:13:20;2.08;;;1.25;;
26102;SDS011;69760;49.380;8.998;2023-11-19T13:15:46;6.05;;;3.72;;
26102;SDS011;69760;49.380;8.998;2023-11-19T13:18:12;3.35;;;1.80;;
26102;SDS011;69760;49.380;8.998;2023-11-19T13:20:39;3.42;;;1.38;;
26102;SDS011;69760;49.380;8.998;2023-11-19T13:23:05;9.75;;;5.15;;
26102;SDS011;69760;49.380;8.998;2023-11-19T19:17:52;5.97;;;1.77;;
26102;SDS011;69760;49.380;8.998;2023-11-19T19:20:18;6.95;;;1.70;;
26102;SDS011;69760;49.380;8.998;2023-11-19T19:22:43;4.85;;;1.63;;
26102;SDS011;69760;49.380;8.998;2023-11-19T19:25:10;12.25;;;2.45;;
26102;SDS011;69760;49.380;8.998;2023-11-19T19:27:36;7.95;;;2.05;;
26102;SDS011;69760;49.380;8.998;2023-11-19T19:30:02;7.40;;;1.60;;
26102;SDS011;69760;49.380;8.998;2023-11-19T19:32:28;8.65;;;1.65;;
26102;SDS011;69760;49.380;8.998;2023-11-19T19:34:53;7.25;;;1.52;;
26102;SDS011;69760;49.380;8.998;2023-11-19T19:37:19;6.65;;;1.88;;
26102;SDS011;69760;49.380;8.998;2023-11-19T19:39:44;11.75;;;1.90;;
26102;SDS011;69760;49.380;8.998;2023-11-19T19:42:10;4.82;;;1.60;;
26102;SDS011;69760;49.380;8.998;2023-11-19T19:44:35;9.82;;;1.73;;
26102;SDS011;69760;49.380;8.998;2023-11-19T19:47:01;7.38;;;2.00;;
26102;SDS011;69760;49.380;8.998;2023-11-19T19:49:27;9.10;;;1.80;;
26102;SDS011;69760;49.380;8.998;2023-11-19T19:51:54;7.65;;;1.70;;
26102;SDS011;69760;49.380;8.998;2023-11-19T19:54:20;9.15;;;1.92;;
26102;SDS011;69760;49.380;8.998;2023-11-19T19:56:46;8.73;;;1.95;;
26102;SDS011;69760;49.380;8.998;2023-11-19T19:59:12;8.20;;;2.00;;
26102;SDS011;69760;49.380;8.998;2023-11-19T20:01:37;7.68;;;1.58;;
26102;SDS011;69760;49.380;8.998;2023-11-19T20:04:03;9.98;;;1.90;;
26102;SDS011;69760;49.380;8.998;2023-11-19T20:06:35;8.40;;;2.22;;
26102;SDS011;69760;49.380;8.998;2023-11-19T20:09:02;5.75;;;1.80;;
26102;SDS011;69760;49.380;8.998;2023-11-19T20:11:28;11.38;;;2.30;;
26102;SDS011;69760;49.380;8.998;2023-11-19T20:13:57;8.02;;;1.80;;
26102;SDS011;69760;49.380;8.998;2023-11-19T20:16:22;7.75;;;1.83;;
26102;SDS011;69760;49.380;8.998;2023-11-19T20:18:48;6.97;;;1.70;;
26102;SDS011;69760;49.380;8.998;2023-11-19T20:21:13;8.52;;;2.28;;
26102;SDS011;69760;49.380;8.998;2023-11-19T20:23:39;10.93;;;2.10;;
26102;SDS011;69760;49.380;8.998;2023-11-19T20:26:04;10.85;;;2.10;;
26102;SDS011;69760;49.380;8.998;2023-11-19T20:28:30;10.13;;;2.15;;
26102;SDS011;69760;49.380;8.998;2023-11-19T20:30:56;11.98;;;2.60;;
26102;SDS011;69760;49.380;8.998;2023-11-19T20:33:22;6.22;;;1.98;;
26102;SDS011;69760;49.380;8.998;2023-11-19T20:35:47;13.55;;;2.33;;
26102;SDS011;69760;49.380;8.998;2023-11-19T20:38:13;11.73;;;2.38;;
26102;SDS011;69760;49.380;8.998;2023-11-19T20:40:41;9.68;;;2.17;;
26102;SDS011;69760;49.380;8.998;2023-11-19T20:43:06;9.23;;;2.22;;
26102;SDS011;69760;49.380;8.998;2023-11-19T20:45:32;14.25;;;2.28;;
26102;SDS011;69760;49.380;8.998;2023-11-19T20:47:57;9.90;;;2.33;;
26102;SDS011;69760;49.380;8.998;2023-11-19T20:50:23;16.95;;;2.42;;
26102;SDS011;69760;49.380;8.998;2023-11-19T20:52:50;11.63;;;2.40;;
26102;SDS011;69760;49.380;8.998;2023-11-19T20:55:19;13.27;;;2.47;;
26102;SDS011;69760;49.380;8.998;2023-11-19T20:57:45;13.00;;;3.00;;
26102;SDS011;69760;49.380;8.998;2023-11-19T21:00:10;9.23;;;2.20;;
26102;SDS011;69760;49.380;8.998;2023-11-19T21:02:42;10.63;;;2.67;;
26102;SDS011;69760;49.380;8.998;2023-11-19T21:05:07;13.98;;;2.65;;
26102;SDS011;69760;49.380;8.998;2023-11-19T21:07:34;13.38;;;1.88;;